sensor_id;sensor_type;location;lat;lon;timestamp;P1;durP1;ratioP1;P2;durP2;ratioP2
74512;SDS011;62992;52.052;8.550;2022-12-20T00:01:20;5.97;;;3.95;;
74512;SDS011;62992;52.052;8.550;2022-12-20T00:04:06;6.55;;;3.78;;
74512;SDS011;62992;52.052;8.550;2022-12-20T00:06:50;6.97;;;3.80;;
74512;SDS011;62992;52.052;8.550;2022-12-20T00:09:34;6.97;;;3.90;;
74512;SDS011;62992;52.052;8.550;2022-12-20T00:12:18;6.35;;;3.90;;
74512;SDS011;62992;52.052;8.550;2022-12-20T00:15:02;6.50;;;3.38;;
74512;SDS011;62992;52.052;8.550;2022-12-20T00:17:47;6.67;;;3.90;;
74512;SDS011;62992;52.052;8.550;2022-12-20T00:20:31;7.82;;;4.35;;
74512;SDS011;62992;52.052;8.550;2022-12-20T00:23:15;6.75;;;4.00;;
74512;SDS011;62992;52.052;8.550;2022-12-20T00:26:00;7.32;;;4.85;;
74512;SDS011;62992;52.052;8.550;2022-12-20T00:28:44;7.03;;;3.53;;
74512;SDS011;62992;52.052;8.550;2022-12-20T00:31:29;6.45;;;3.40;;
74512;SDS011;62992;52.052;8.550;2022-12-20T00:34:14;7.43;;;4.15;;
74512;SDS011;62992;52.052;8.550;2022-12-20T00:36:58;5.35;;;3.58;;
74512;SDS011;62992;52.052;8.550;2022-12-20T00:39:42;7.28;;;3.85;;
74512;SDS011;62992;52.052;8.550;2022-12-20T00:42:26;6.07;;;3.00;;
74512;SDS011;62992;52.052;8.550;2022-12-20T00:45:10;7.55;;;3.45;;
74512;SDS011;62992;52.052;8.550;2022-12-20T00:47:54;5.28;;;3.90;;
74512;SDS011;62992;52.052;8.550;2022-12-20T00:50:38;6.68;;;3.30;;
74512;SDS011;62992;52.052;8.550;2022-12-20T00:53:22;6.70;;;3.60;;
74512;SDS011;62992;52.052;8.550;2022-12-20T00:56:07;4.43;;;3.08;;
74512;SDS011;62992;52.052;8.550;2022-12-20T00:58:51;6.15;;;3.20;;
74512;SDS011;62992;52.052;8.550;2022-12-20T01:01:36;4.07;;;2.93;;
74512;SDS011;62992;52.052;8.550;2022-12-20T01:04:21;5.72;;;3.67;;
74512;SDS011;62992;52.052;8.550;2022-12-20T01:07:05;4.72;;;2.92;;
74512;SDS011;62992;52.052;8.550;2022-12-20T01:09:49;4.78;;;3.00;;
74512;SDS011;62992;52.052;8.550;2022-12-20T01:12:34;5.28;;;2.80;;
74512;SDS011;62992;52.052;8.550;2022-12-20T01:15:18;5.45;;;2.95;;
74512;SDS011;62992;52.052;8.550;2022-12-20T01:18:03;5.53;;;3.20;;
74512;SDS011;62992;52.052;8.550;2022-12-20T01:20:47;5.63;;;2.97;;
74512;SDS011;62992;52.052;8.550;2022-12-20T01:23:31;6.75;;;3.00;;
74512;SDS011;62992;52.052;8.550;2022-12-20T01:26:17;4.88;;;3.17;;
74512;SDS011;62992;52.052;8.550;2022-12-20T01:29:03;4.80;;;3.20;;
74512;SDS011;62992;52.052;8.550;2022-12-20T01:31:47;4.78;;;2.88;;
74512;SDS011;62992;52.052;8.550;2022-12-20T01:34:31;6.75;;;3.10;;
74512;SDS011;62992;52.052;8.550;2022-12-20T01:37:15;5.25;;;2.92;;
74512;SDS011;62992;52.052;8.550;2022-12-20T01:39:59;6.50;;;2.58;;
74512;SDS011;62992;52.052;8.550;2022-12-20T01:42:43;6.63;;;3.00;;
74512;SDS011;62992;52.052;8.550;2022-12-20T01:45:29;4.65;;;2.63;;
74512;SDS011;62992;52.052;8.550;2022-12-20T01:48:15;5.28;;;3.08;;
74512;SDS011;62992;52.052;8.550;2022-12-20T01:51:02;5.88;;;2.80;;
74512;SDS011;62992;52.052;8.550;2022-12-20T01:53:47;4.32;;;2.70;;
74512;SDS011;62992;52.052;8.550;2022-12-20T01:56:37;4.85;;;2.70;;
74512;SDS011;62992;52.052;8.550;2022-12-20T01:59:23;5.85;;;2.80;;
74512;SDS011;62992;52.052;8.550;2022-12-20T02:02:09;5.00;;;2.90;;
74512;SDS011;62992;52.052;8.550;2022-12-20T02:04:54;6.22;;;2.75;;
74512;SDS011;62992;52.052;8.550;2022-12-20T02:07:38;5.60;;;2.75;;
74512;SDS011;62992;52.052;8.550;2022-12-20T02:16:37;3.25;;;2.45;;
74512;SDS011;62992;52.052;8.550;2022-12-20T02:29:22;2.90;;;1.92;;
74512;SDS011;62992;52.052;8.550;2022-12-20T02:32:16;2.95;;;1.98;;
74512;SDS011;62992;52.052;8.550;2022-12-20T02:35:07;4.72;;;2.45;;
74512;SDS011;62992;52.052;8.550;2022-12-20T02:37:54;4.85;;;2.47;;
74512;SDS011;62992;52.052;8.550;2022-12-20T02:40:40;4.25;;;2.30;;
74512;SDS011;62992;52.052;8.550;2022-12-20T02:43:26;3.22;;;2.58;;
74512;SDS011;62992;52.052;8.550;2022-12-20T02:46:31;4.75;;;2.40;;
74512;SDS011;62992;52.052;8.550;2022-12-20T02:49:18;4.20;;;2.22;;
74512;SDS011;62992;52.052;8.550;2022-12-20T02:52:05;4.72;;;2.50;;
74512;SDS011;62992;52.052;8.550;2022-12-20T02:54:52;3.30;;;2.00;;
74512;SDS011;62992;52.052;8.550;2022-12-20T02:57:41;4.72;;;2.35;;
74512;SDS011;62992;52.052;8.550;2022-12-20T03:00:32;3.85;;;2.00;;
74512;SDS011;62992;52.052;8.550;2022-12-20T03:03:22;3.97;;;2.00;;
74512;SDS011;62992;52.052;8.550;2022-12-20T03:06:06;4.05;;;2.28;;
74512;SDS011;62992;52.052;8.550;2022-12-20T03:08:51;6.75;;;2.67;;
74512;SDS011;62992;52.052;8.550;2022-12-20T03:11:35;4.43;;;2.20;;
74512;SDS011;62992;52.052;8.550;2022-12-20T03:14:18;3.00;;;2.13;;
74512;SDS011;62992;52.052;8.550;2022-12-20T03:17:03;2.85;;;2.20;;
74512;SDS011;62992;52.052;8.550;2022-12-20T03:19:47;4.85;;;2.40;;
74512;SDS011;62992;52.052;8.550;2022-12-20T03:22:32;5.28;;;2.75;;
74512;SDS011;62992;52.052;8.550;2022-12-20T03:25:16;4.07;;;2.30;;
74512;SDS011;62992;52.052;8.550;2022-12-20T03:28:02;5.75;;;2.30;;
74512;SDS011;62992;52.052;8.550;2022-12-20T03:30:46;5.07;;;2.10;;
74512;SDS011;62992;52.052;8.550;2022-12-20T03:33:30;3.80;;;1.90;;
74512;SDS011;62992;52.052;8.550;2022-12-20T03:36:15;3.83;;;1.92;;
74512;SDS011;62992;52.052;8.550;2022-12-20T03:38:59;2.85;;;2.10;;
74512;SDS011;62992;52.052;8.550;2022-12-20T03:41:43;2.55;;;1.95;;
74512;SDS011;62992;52.052;8.550;2022-12-20T03:44:27;5.30;;;2.22;;
74512;SDS011;62992;52.052;8.550;2022-12-20T03:47:12;5.45;;;2.40;;
74512;SDS011;62992;52.052;8.550;2022-12-20T03:49:56;2.72;;;2.05;;
74512;SDS011;62992;52.052;8.550;2022-12-20T03:52:40;4.80;;;2.28;;
74512;SDS011;62992;52.052;8.550;2022-12-20T03:55:24;3.65;;;2.30;;
74512;SDS011;62992;52.052;8.550;2022-12-20T03:58:08;4.43;;;2.47;;
74512;SDS011;62992;52.052;8.550;2022-12-20T04:00:52;3.97;;;2.30;;
74512;SDS011;62992;52.052;8.550;2022-12-20T04:03:36;4.07;;;2.10;;
74512;SDS011;62992;52.052;8.550;2022-12-20T04:06:20;3.95;;;2.38;;
74512;SDS011;62992;52.052;8.550;2022-12-20T04:09:05;4.10;;;2.30;;
74512;SDS011;62992;52.052;8.550;2022-12-20T04:11:49;2.83;;;2.20;;
74512;SDS011;62992;52.052;8.550;2022-12-20T04:14:34;4.30;;;2.42;;
74512;SDS011;62992;52.052;8.550;2022-12-20T04:17:19;3.90;;;2.20;;
74512;SDS011;62992;52.052;8.550;2022-12-20T04:20:03;4.32;;;2.03;;
74512;SDS011;62992;52.052;8.550;2022-12-20T04:23:01;4.35;;;2.35;;
74512;SDS011;62992;52.052;8.550;2022-12-20T04:25:45;4.63;;;2.40;;
74512;SDS011;62992;52.052;8.550;2022-12-20T04:28:29;4.25;;;2.35;;
74512;SDS011;62992;52.052;8.550;2022-12-20T04:31:14;4.80;;;2.90;;
74512;SDS011;62992;52.052;8.550;2022-12-20T04:33:58;4.25;;;2.78;;
74512;SDS011;62992;52.052;8.550;2022-12-20T04:36:42;3.20;;;2.83;;
74512;SDS011;62992;52.052;8.550;2022-12-20T04:39:26;4.57;;;2.67;;
74512;SDS011;62992;52.052;8.550;2022-12-20T04:42:10;6.13;;;3.13;;
74512;SDS011;62992;52.052;8.550;2022-12-20T04:44:54;3.35;;;2.75;;
74512;SDS011;62992;52.052;8.550;2022-12-20T04:47:38;3.92;;;2.78;;
74512;SDS011;62992;52.052;8.550;2022-12-20T04:50:22;4.45;;;2.55;;
74512;SDS011;62992;52.052;8.550;2022-12-20T04:53:07;4.63;;;2.67;;
74512;SDS011;62992;52.052;8.550;2022-12-20T04:56:16;4.47;;;3.00;;
74512;SDS011;62992;52.052;8.550;2022-12-20T04:59:02;6.38;;;2.83;;
74512;SDS011;62992;52.052;8.550;2022-12-20T05:01:46;5.53;;;2.92;;
74512;SDS011;62992;52.052;8.550;2022-12-20T05:04:30;5.05;;;3.17;;
74512;SDS011;62992;52.052;8.550;2022-12-20T05:07:14;6.55;;;3.22;;
74512;SDS011;62992;52.052;8.550;2022-12-20T05:09:58;4.60;;;2.90;;
74512;SDS011;62992;52.052;8.550;2022-12-20T05:12:42;5.63;;;2.65;;
74512;SDS011;62992;52.052;8.550;2022-12-20T05:15:27;7.43;;;2.90;;
74512;SDS011;62992;52.052;8.550;2022-12-20T05:18:11;7.55;;;2.92;;
74512;SDS011;62992;52.052;8.550;2022-12-20T05:20:56;4.25;;;2.47;;
74512;SDS011;62992;52.052;8.550;2022-12-20T05:24:00;4.85;;;3.00;;
74512;SDS011;62992;52.052;8.550;2022-12-20T05:27:03;3.97;;;2.53;;
74512;SDS011;62992;52.052;8.550;2022-12-20T05:29:47;3.10;;;2.58;;
74512;SDS011;62992;52.052;8.550;2022-12-20T05:32:31;4.20;;;2.65;;
74512;SDS011;62992;52.052;8.550;2022-12-20T05:35:16;4.25;;;2.95;;
74512;SDS011;62992;52.052;8.550;2022-12-20T05:38:00;4.10;;;2.58;;
74512;SDS011;62992;52.052;8.550;2022-12-20T05:40:46;5.20;;;2.78;;
74512;SDS011;62992;52.052;8.550;2022-12-20T05:43:31;5.72;;;3.13;;
74512;SDS011;62992;52.052;8.550;2022-12-20T05:46:15;6.70;;;3.83;;
74512;SDS011;62992;52.052;8.550;2022-12-20T05:48:59;4.95;;;2.90;;
74512;SDS011;62992;52.052;8.550;2022-12-20T05:51:43;10.70;;;3.63;;
74512;SDS011;62992;52.052;8.550;2022-12-20T05:54:27;7.47;;;3.20;;
74512;SDS011;62992;52.052;8.550;2022-12-20T05:57:11;4.63;;;3.03;;
74512;SDS011;62992;52.052;8.550;2022-12-20T05:59:57;6.05;;;2.65;;
74512;SDS011;62992;52.052;8.550;2022-12-20T06:02:41;5.05;;;3.33;;
74512;SDS011;62992;52.052;8.550;2022-12-20T06:05:25;6.95;;;3.13;;
74512;SDS011;62992;52.052;8.550;2022-12-20T06:08:10;5.07;;;3.03;;
74512;SDS011;62992;52.052;8.550;2022-12-20T06:10:55;5.05;;;3.00;;
74512;SDS011;62992;52.052;8.550;2022-12-20T06:13:39;6.10;;;3.03;;
74512;SDS011;62992;52.052;8.550;2022-12-20T06:16:22;4.03;;;3.10;;
74512;SDS011;62992;52.052;8.550;2022-12-20T06:19:07;5.55;;;2.90;;
74512;SDS011;62992;52.052;8.550;2022-12-20T06:21:52;4.05;;;2.85;;
74512;SDS011;62992;52.052;8.550;2022-12-20T06:24:36;5.00;;;2.97;;
74512;SDS011;62992;52.052;8.550;2022-12-20T06:27:21;6.38;;;3.72;;
74512;SDS011;62992;52.052;8.550;2022-12-20T06:30:05;6.38;;;3.70;;
74512;SDS011;62992;52.052;8.550;2022-12-20T06:32:50;6.13;;;3.47;;
74512;SDS011;62992;52.052;8.550;2022-12-20T06:35:34;6.97;;;3.83;;
74512;SDS011;62992;52.052;8.550;2022-12-20T06:38:19;6.32;;;3.85;;
74512;SDS011;62992;52.052;8.550;2022-12-20T06:41:03;7.50;;;3.63;;
74512;SDS011;62992;52.052;8.550;2022-12-20T06:43:46;6.30;;;3.83;;
74512;SDS011;62992;52.052;8.550;2022-12-20T06:46:30;6.75;;;3.83;;
74512;SDS011;62992;52.052;8.550;2022-12-20T06:49:15;8.15;;;4.57;;
74512;SDS011;62992;52.052;8.550;2022-12-20T06:51:59;7.00;;;3.90;;
74512;SDS011;62992;52.052;8.550;2022-12-20T06:54:43;9.95;;;4.18;;
74512;SDS011;62992;52.052;8.550;2022-12-20T06:57:27;8.02;;;4.10;;
74512;SDS011;62992;52.052;8.550;2022-12-20T07:00:11;7.03;;;3.85;;
74512;SDS011;62992;52.052;8.550;2022-12-20T07:02:56;5.97;;;3.65;;
74512;SDS011;62992;52.052;8.550;2022-12-20T07:05:40;5.43;;;3.33;;
74512;SDS011;62992;52.052;8.550;2022-12-20T07:08:24;4.60;;;3.47;;
74512;SDS011;62992;52.052;8.550;2022-12-20T07:11:08;6.93;;;3.88;;
74512;SDS011;62992;52.052;8.550;2022-12-20T07:13:56;5.43;;;3.65;;
74512;SDS011;62992;52.052;8.550;2022-12-20T07:16:41;6.35;;;3.75;;
74512;SDS011;62992;52.052;8.550;2022-12-20T07:19:26;8.10;;;4.23;;
74512;SDS011;62992;52.052;8.550;2022-12-20T07:22:10;7.22;;;4.05;;
74512;SDS011;62992;52.052;8.550;2022-12-20T07:24:54;10.45;;;4.88;;
74512;SDS011;62992;52.052;8.550;2022-12-20T07:27:38;8.30;;;5.13;;
74512;SDS011;62992;52.052;8.550;2022-12-20T07:30:22;10.48;;;5.15;;
74512;SDS011;62992;52.052;8.550;2022-12-20T07:33:06;8.60;;;4.72;;
74512;SDS011;62992;52.052;8.550;2022-12-20T07:35:50;8.85;;;5.15;;
74512;SDS011;62992;52.052;8.550;2022-12-20T07:38:34;8.23;;;5.32;;
74512;SDS011;62992;52.052;8.550;2022-12-20T07:41:19;9.90;;;5.63;;
74512;SDS011;62992;52.052;8.550;2022-12-20T07:44:03;8.70;;;5.00;;
74512;SDS011;62992;52.052;8.550;2022-12-20T07:46:48;10.57;;;6.10;;
74512;SDS011;62992;52.052;8.550;2022-12-20T07:49:32;10.38;;;6.18;;
74512;SDS011;62992;52.052;8.550;2022-12-20T07:52:18;8.77;;;5.93;;
74512;SDS011;62992;52.052;8.550;2022-12-20T07:55:06;8.20;;;5.25;;
74512;SDS011;62992;52.052;8.550;2022-12-20T07:57:55;7.68;;;4.93;;
74512;SDS011;62992;52.052;8.550;2022-12-20T08:00:43;11.75;;;6.30;;
74512;SDS011;62992;52.052;8.550;2022-12-20T08:03:29;10.05;;;5.50;;
74512;SDS011;62992;52.052;8.550;2022-12-20T08:06:19;7.53;;;5.05;;
74512;SDS011;62992;52.052;8.550;2022-12-20T08:09:04;9.63;;;5.47;;
74512;SDS011;62992;52.052;8.550;2022-12-20T08:11:49;9.63;;;5.72;;
74512;SDS011;62992;52.052;8.550;2022-12-20T08:14:35;7.68;;;5.15;;
74512;SDS011;62992;52.052;8.550;2022-12-20T08:17:20;8.73;;;5.55;;
74512;SDS011;62992;52.052;8.550;2022-12-20T08:20:05;9.32;;;5.47;;
74512;SDS011;62992;52.052;8.550;2022-12-20T08:25:35;8.18;;;4.70;;
74512;SDS011;62992;52.052;8.550;2022-12-20T08:28:19;5.97;;;4.53;;
74512;SDS011;62992;52.052;8.550;2022-12-20T08:31:04;7.68;;;4.55;;
74512;SDS011;62992;52.052;8.550;2022-12-20T08:33:52;12.73;;;5.32;;
74512;SDS011;62992;52.052;8.550;2022-12-20T08:36:37;10.25;;;4.78;;
74512;SDS011;62992;52.052;8.550;2022-12-20T08:39:21;9.57;;;4.57;;
74512;SDS011;62992;52.052;8.550;2022-12-20T08:42:05;8.50;;;4.30;;
74512;SDS011;62992;52.052;8.550;2022-12-20T08:44:49;10.68;;;4.93;;
74512;SDS011;62992;52.052;8.550;2022-12-20T08:47:33;8.38;;;4.25;;
74512;SDS011;62992;52.052;8.550;2022-12-20T08:50:17;8.27;;;4.75;;
74512;SDS011;62992;52.052;8.550;2022-12-20T08:53:01;6.15;;;3.80;;
74512;SDS011;62992;52.052;8.550;2022-12-20T08:55:46;6.57;;;3.83;;
74512;SDS011;62992;52.052;8.550;2022-12-20T08:58:30;8.43;;;4.28;;
74512;SDS011;62992;52.052;8.550;2022-12-20T09:01:18;6.68;;;3.83;;
74512;SDS011;62992;52.052;8.550;2022-12-20T09:04:04;9.45;;;4.28;;
74512;SDS011;62992;52.052;8.550;2022-12-20T09:06:48;8.48;;;4.25;;
74512;SDS011;62992;52.052;8.550;2022-12-20T09:09:32;5.60;;;3.67;;
74512;SDS011;62992;52.052;8.550;2022-12-20T09:12:16;6.68;;;3.67;;
74512;SDS011;62992;52.052;8.550;2022-12-20T09:15:01;5.80;;;3.50;;
74512;SDS011;62992;52.052;8.550;2022-12-20T09:17:45;8.90;;;3.90;;
74512;SDS011;62992;52.052;8.550;2022-12-20T09:20:29;6.43;;;3.60;;
74512;SDS011;62992;52.052;8.550;2022-12-20T09:23:14;6.60;;;3.72;;
74512;SDS011;62992;52.052;8.550;2022-12-20T09:26:05;5.15;;;3.55;;
74512;SDS011;62992;52.052;8.550;2022-12-20T09:28:51;6.22;;;3.63;;
74512;SDS011;62992;52.052;8.550;2022-12-20T09:31:38;7.22;;;3.78;;
74512;SDS011;62992;52.052;8.550;2022-12-20T09:34:22;7.28;;;3.53;;
74512;SDS011;62992;52.052;8.550;2022-12-20T09:37:09;10.75;;;4.03;;
74512;SDS011;62992;52.052;8.550;2022-12-20T09:39:53;6.72;;;3.47;;
74512;SDS011;62992;52.052;8.550;2022-12-20T09:42:37;7.03;;;3.58;;
74512;SDS011;62992;52.052;8.550;2022-12-20T09:45:31;5.13;;;3.13;;
74512;SDS011;62992;52.052;8.550;2022-12-20T09:48:21;7.32;;;3.42;;
74512;SDS011;62992;52.052;8.550;2022-12-20T09:54:01;7.22;;;3.35;;
74512;SDS011;62992;52.052;8.550;2022-12-20T09:57:02;7.97;;;4.25;;
74512;SDS011;62992;52.052;8.550;2022-12-20T09:59:55;8.20;;;3.83;;
74512;SDS011;62992;52.052;8.550;2022-12-20T10:02:43;6.28;;;3.85;;
74512;SDS011;62992;52.052;8.550;2022-12-20T10:05:37;4.00;;;2.78;;
74512;SDS011;62992;52.052;8.550;2022-12-20T10:08:59;5.63;;;3.33;;
74512;SDS011;62992;52.052;8.550;2022-12-20T10:17:51;6.65;;;2.95;;
74512;SDS011;62992;52.052;8.550;2022-12-20T10:21:03;4.80;;;2.78;;
74512;SDS011;62992;52.052;8.550;2022-12-20T10:24:01;4.20;;;3.15;;
74512;SDS011;62992;52.052;8.550;2022-12-20T10:26:51;6.43;;;3.33;;
74512;SDS011;62992;52.052;8.550;2022-12-20T10:29:38;5.07;;;3.13;;
74512;SDS011;62992;52.052;8.550;2022-12-20T10:32:25;5.07;;;3.17;;
74512;SDS011;62992;52.052;8.550;2022-12-20T10:35:32;4.53;;;3.15;;
74512;SDS011;62992;52.052;8.550;2022-12-20T10:38:26;5.93;;;3.28;;
74512;SDS011;62992;52.052;8.550;2022-12-20T10:41:32;7.05;;;3.00;;
74512;SDS011;62992;52.052;8.550;2022-12-20T10:44:26;6.40;;;3.38;;
74512;SDS011;62992;52.052;8.550;2022-12-20T10:47:34;4.55;;;2.88;;
74512;SDS011;62992;52.052;8.550;2022-12-20T10:50:24;5.80;;;3.22;;
74512;SDS011;62992;52.052;8.550;2022-12-20T10:53:18;6.85;;;3.33;;
74512;SDS011;62992;52.052;8.550;2022-12-20T10:56:11;5.00;;;3.42;;
74512;SDS011;62992;52.052;8.550;2022-12-20T11:02:02;5.20;;;3.78;;
74512;SDS011;62992;52.052;8.550;2022-12-20T11:07:55;6.40;;;3.55;;
74512;SDS011;62992;52.052;8.550;2022-12-20T11:10:41;6.32;;;3.78;;
74512;SDS011;62992;52.052;8.550;2022-12-20T11:13:27;6.47;;;3.83;;
74512;SDS011;62992;52.052;8.550;2022-12-20T11:22:00;6.28;;;3.67;;
74512;SDS011;62992;52.052;8.550;2022-12-20T11:25:04;5.32;;;3.75;;
74512;SDS011;62992;52.052;8.550;2022-12-20T11:31:00;6.15;;;3.90;;
74512;SDS011;62992;52.052;8.550;2022-12-20T11:34:16;6.07;;;3.30;;
74512;SDS011;62992;52.052;8.550;2022-12-20T11:40:01;8.68;;;3.92;;
74512;SDS011;62992;52.052;8.550;2022-12-20T11:52:45;6.82;;;3.72;;
74512;SDS011;62992;52.052;8.550;2022-12-20T11:55:38;5.78;;;4.20;;
74512;SDS011;62992;52.052;8.550;2022-12-20T11:59:00;6.13;;;3.40;;
74512;SDS011;62992;52.052;8.550;2022-12-20T12:01:42;6.15;;;3.33;;
74512;SDS011;62992;52.052;8.550;2022-12-20T12:05:22;6.47;;;3.22;;
74512;SDS011;62992;52.052;8.550;2022-12-20T12:08:23;6.35;;;3.10;;
74512;SDS011;62992;52.052;8.550;2022-12-20T12:11:17;6.07;;;3.33;;
74512;SDS011;62992;52.052;8.550;2022-12-20T12:14:28;4.68;;;3.17;;
74512;SDS011;62992;52.052;8.550;2022-12-20T12:17:23;6.03;;;3.03;;
74512;SDS011;62992;52.052;8.550;2022-12-20T12:26:53;5.60;;;2.90;;
74512;SDS011;62992;52.052;8.550;2022-12-20T12:29:38;7.50;;;3.75;;
74512;SDS011;62992;52.052;8.550;2022-12-20T12:35:46;6.22;;;3.33;;
74512;SDS011;62992;52.052;8.550;2022-12-20T12:49:02;8.85;;;4.03;;
74512;SDS011;62992;52.052;8.550;2022-12-20T12:51:35;5.13;;;3.45;;
74512;SDS011;62992;52.052;8.550;2022-12-20T12:54:24;5.65;;;2.92;;
74512;SDS011;62992;52.052;8.550;2022-12-20T12:57:20;9.98;;;3.78;;
74512;SDS011;62992;52.052;8.550;2022-12-20T13:00:17;7.55;;;3.17;;
74512;SDS011;62992;52.052;8.550;2022-12-20T13:24:39;6.45;;;3.60;;
74512;SDS011;62992;52.052;8.550;2022-12-20T13:27:39;8.35;;;3.38;;
74512;SDS011;62992;52.052;8.550;2022-12-20T13:30:24;9.32;;;3.75;;
74512;SDS011;62992;52.052;8.550;2022-12-20T13:33:17;10.55;;;3.55;;
74512;SDS011;62992;52.052;8.550;2022-12-20T13:38:54;4.88;;;2.58;;
74512;SDS011;62992;52.052;8.550;2022-12-20T13:41:42;5.13;;;2.70;;
74512;SDS011;62992;52.052;8.550;2022-12-20T13:44:32;6.68;;;2.83;;
74512;SDS011;62992;52.052;8.550;2022-12-20T13:47:35;6.72;;;3.38;;
74512;SDS011;62992;52.052;8.550;2022-12-20T13:53:17;4.82;;;2.92;;
74512;SDS011;62992;52.052;8.550;2022-12-20T13:59:14;5.88;;;2.80;;
74512;SDS011;62992;52.052;8.550;2022-12-20T14:02:10;4.68;;;2.47;;
74512;SDS011;62992;52.052;8.550;2022-12-20T14:05:02;7.18;;;2.92;;
74512;SDS011;62992;52.052;8.550;2022-12-20T14:08:07;3.33;;;2.30;;
74512;SDS011;62992;52.052;8.550;2022-12-20T14:11:10;7.88;;;2.70;;
74512;SDS011;62992;52.052;8.550;2022-12-20T14:14:00;4.43;;;2.40;;
74512;SDS011;62992;52.052;8.550;2022-12-20T14:16:45;5.38;;;2.70;;
74512;SDS011;62992;52.052;8.550;2022-12-20T14:19:29;3.92;;;2.30;;
74512;SDS011;62992;52.052;8.550;2022-12-20T14:22:13;4.68;;;2.28;;
74512;SDS011;62992;52.052;8.550;2022-12-20T14:24:57;5.63;;;2.47;;
74512;SDS011;62992;52.052;8.550;2022-12-20T14:27:42;5.30;;;2.38;;
74512;SDS011;62992;52.052;8.550;2022-12-20T14:30:29;4.80;;;2.20;;
74512;SDS011;62992;52.052;8.550;2022-12-20T14:33:23;3.00;;;1.67;;
74512;SDS011;62992;52.052;8.550;2022-12-20T14:38:58;4.38;;;2.00;;
74512;SDS011;62992;52.052;8.550;2022-12-20T14:41:42;4.50;;;2.50;;
74512;SDS011;62992;52.052;8.550;2022-12-20T14:44:28;4.38;;;2.30;;
74512;SDS011;62992;52.052;8.550;2022-12-20T14:47:26;4.90;;;2.00;;
74512;SDS011;62992;52.052;8.550;2022-12-20T14:50:18;6.50;;;2.30;;
74512;SDS011;62992;52.052;8.550;2022-12-20T14:53:10;4.00;;;1.80;;
74512;SDS011;62992;52.052;8.550;2022-12-20T14:58:45;6.15;;;2.03;;
74512;SDS011;62992;52.052;8.550;2022-12-20T15:01:32;4.25;;;2.00;;
74512;SDS011;62992;52.052;8.550;2022-12-20T15:07:27;7.18;;;2.40;;
74512;SDS011;62992;52.052;8.550;2022-12-20T15:10:12;2.05;;;1.45;;
74512;SDS011;62992;52.052;8.550;2022-12-20T15:12:57;3.70;;;2.13;;
74512;SDS011;62992;52.052;8.550;2022-12-20T15:15:41;4.10;;;2.30;;
74512;SDS011;62992;52.052;8.550;2022-12-20T15:18:26;4.82;;;1.83;;
74512;SDS011;62992;52.052;8.550;2022-12-20T15:21:14;5.65;;;2.58;;
74512;SDS011;62992;52.052;8.550;2022-12-20T15:24:03;4.82;;;2.28;;
74512;SDS011;62992;52.052;8.550;2022-12-20T15:26:52;4.80;;;2.25;;
74512;SDS011;62992;52.052;8.550;2022-12-20T15:29:37;6.82;;;2.60;;
74512;SDS011;62992;52.052;8.550;2022-12-20T15:32:25;5.60;;;2.35;;
74512;SDS011;62992;52.052;8.550;2022-12-20T15:35:12;6.30;;;2.28;;
74512;SDS011;62992;52.052;8.550;2022-12-20T15:37:57;4.88;;;2.55;;
74512;SDS011;62992;52.052;8.550;2022-12-20T15:40:42;6.70;;;3.40;;
74512;SDS011;62992;52.052;8.550;2022-12-20T15:43:28;6.28;;;3.10;;
74512;SDS011;62992;52.052;8.550;2022-12-20T15:46:21;6.40;;;3.35;;
74512;SDS011;62992;52.052;8.550;2022-12-20T15:49:08;7.95;;;3.17;;
74512;SDS011;62992;52.052;8.550;2022-12-20T15:52:00;6.70;;;2.80;;
74512;SDS011;62992;52.052;8.550;2022-12-20T15:54:44;6.03;;;3.20;;
74512;SDS011;62992;52.052;8.550;2022-12-20T15:57:28;7.18;;;2.95;;
74512;SDS011;62992;52.052;8.550;2022-12-20T16:00:13;7.85;;;4.05;;
74512;SDS011;62992;52.052;8.550;2022-12-20T16:02:58;7.03;;;3.55;;
74512;SDS011;62992;52.052;8.550;2022-12-20T16:05:44;8.68;;;4.20;;
74512;SDS011;62992;52.052;8.550;2022-12-20T16:08:29;6.53;;;3.83;;
74512;SDS011;62992;52.052;8.550;2022-12-20T16:11:21;8.77;;;4.82;;
74512;SDS011;62992;52.052;8.550;2022-12-20T16:14:12;9.93;;;5.30;;
74512;SDS011;62992;52.052;8.550;2022-12-20T16:16:59;9.43;;;4.80;;
74512;SDS011;62992;52.052;8.550;2022-12-20T16:19:44;13.40;;;5.13;;
74512;SDS011;62992;52.052;8.550;2022-12-20T16:22:29;8.93;;;4.97;;
74512;SDS011;62992;52.052;8.550;2022-12-20T16:25:33;12.65;;;5.70;;
74512;SDS011;62992;52.052;8.550;2022-12-20T16:28:19;10.50;;;5.85;;
74512;SDS011;62992;52.052;8.550;2022-12-20T16:34:16;9.15;;;5.07;;
74512;SDS011;62992;52.052;8.550;2022-12-20T16:37:00;12.20;;;6.13;;
74512;SDS011;62992;52.052;8.550;2022-12-20T16:39:45;10.02;;;6.47;;
74512;SDS011;62992;52.052;8.550;2022-12-20T16:42:29;11.40;;;5.80;;
74512;SDS011;62992;52.052;8.550;2022-12-20T16:45:17;8.95;;;5.32;;
74512;SDS011;62992;52.052;8.550;2022-12-20T16:48:03;14.85;;;6.75;;
74512;SDS011;62992;52.052;8.550;2022-12-20T16:50:47;12.25;;;6.35;;
74512;SDS011;62992;52.052;8.550;2022-12-20T16:53:31;8.82;;;5.15;;
74512;SDS011;62992;52.052;8.550;2022-12-20T16:56:15;9.45;;;5.32;;
74512;SDS011;62992;52.052;8.550;2022-12-20T16:59:00;10.20;;;5.22;;
74512;SDS011;62992;52.052;8.550;2022-12-20T17:01:44;8.73;;;5.18;;
74512;SDS011;62992;52.052;8.550;2022-12-20T17:04:29;8.17;;;5.03;;
74512;SDS011;62992;52.052;8.550;2022-12-20T17:07:13;9.75;;;4.95;;
74512;SDS011;62992;52.052;8.550;2022-12-20T17:09:59;8.82;;;5.13;;
74512;SDS011;62992;52.052;8.550;2022-12-20T17:12:43;7.88;;;4.85;;
74512;SDS011;62992;52.052;8.550;2022-12-20T17:15:29;9.43;;;5.18;;
74512;SDS011;62992;52.052;8.550;2022-12-20T17:18:14;7.53;;;5.60;;
74512;SDS011;62992;52.052;8.550;2022-12-20T17:20:59;8.13;;;4.38;;
74512;SDS011;62992;52.052;8.550;2022-12-20T17:23:46;7.95;;;4.85;;
74512;SDS011;62992;52.052;8.550;2022-12-20T17:26:31;9.13;;;4.63;;
74512;SDS011;62992;52.052;8.550;2022-12-20T17:29:17;7.43;;;5.25;;
74512;SDS011;62992;52.052;8.550;2022-12-20T17:32:07;6.80;;;4.40;;
74512;SDS011;62992;52.052;8.550;2022-12-20T17:35:03;7.88;;;4.60;;
74512;SDS011;62992;52.052;8.550;2022-12-20T17:37:48;8.93;;;4.75;;
74512;SDS011;62992;52.052;8.550;2022-12-20T17:40:34;10.45;;;4.88;;
74512;SDS011;62992;52.052;8.550;2022-12-20T17:43:18;9.18;;;5.55;;
74512;SDS011;62992;52.052;8.550;2022-12-20T17:46:02;10.38;;;4.88;;
74512;SDS011;62992;52.052;8.550;2022-12-20T17:48:46;9.70;;;5.55;;
74512;SDS011;62992;52.052;8.550;2022-12-20T17:51:31;8.30;;;5.32;;
74512;SDS011;62992;52.052;8.550;2022-12-20T17:54:16;13.70;;;5.32;;
74512;SDS011;62992;52.052;8.550;2022-12-20T17:57:02;11.05;;;5.03;;
74512;SDS011;62992;52.052;8.550;2022-12-20T17:59:47;12.13;;;5.07;;
74512;SDS011;62992;52.052;8.550;2022-12-20T18:02:30;10.52;;;5.20;;
74512;SDS011;62992;52.052;8.550;2022-12-20T18:05:15;9.65;;;5.20;;
74512;SDS011;62992;52.052;8.550;2022-12-20T18:07:59;8.52;;;4.40;;
74512;SDS011;62992;52.052;8.550;2022-12-20T18:10:43;11.23;;;5.72;;
74512;SDS011;62992;52.052;8.550;2022-12-20T18:13:28;8.30;;;5.05;;
74512;SDS011;62992;52.052;8.550;2022-12-20T18:16:12;8.07;;;5.03;;
74512;SDS011;62992;52.052;8.550;2022-12-20T18:18:59;9.07;;;5.18;;
74512;SDS011;62992;52.052;8.550;2022-12-20T18:21:43;9.55;;;4.88;;
74512;SDS011;62992;52.052;8.550;2022-12-20T18:24:27;10.30;;;5.78;;
74512;SDS011;62992;52.052;8.550;2022-12-20T18:27:12;9.45;;;5.47;;
74512;SDS011;62992;52.052;8.550;2022-12-20T18:29:56;7.40;;;4.93;;
74512;SDS011;62992;52.052;8.550;2022-12-20T18:32:40;14.80;;;6.20;;
74512;SDS011;62992;52.052;8.550;2022-12-20T18:35:24;7.57;;;5.07;;
74512;SDS011;62992;52.052;8.550;2022-12-20T18:38:09;8.13;;;4.78;;
74512;SDS011;62992;52.052;8.550;2022-12-20T18:40:53;6.43;;;4.40;;
74512;SDS011;62992;52.052;8.550;2022-12-20T18:43:40;8.60;;;5.53;;